createdAt,value
2019-04-25T00:01:52.383Z,99810.95
2019-04-25T00:04:22.522Z,99800.60
2019-04-25T00:06:52.833Z,99801.98
2019-04-25T00:09:23.285Z,99809.87
2019-04-25T00:11:52.621Z,99799.52
2019-04-25T00:14:23.583Z,99800.00
2019-04-25T00:16:53.590Z,99800.92
2019-04-25T00:19:22.969Z,99798.31
2019-04-25T00:21:59.682Z,99798.37
2019-04-25T00:24:47.245Z,99795.37
2019-04-25T00:27:16.620Z,99805.84
2019-04-25T00:29:46.777Z,99804.61
2019-04-25T00:32:16.173Z,99803.33
2019-04-25T00:34:46.474Z,99802.54
2019-04-25T00:37:16.002Z,99800.42
2019-04-25T00:39:46.148Z,99792.65
2019-04-25T00:42:15.757Z,99786.16
2019-04-25T00:44:45.947Z,99787.94
2019-04-25T00:47:15.374Z,99789.27
2019-04-25T00:49:45.257Z,99783.23
2019-04-25T00:52:15.309Z,99777.23
2019-04-25T00:54:44.621Z,99773.37
2019-04-25T00:57:14.381Z,99773.80
2019-04-25T00:59:46.882Z,99772.58
2019-04-25T01:02:17.797Z,99775.67
2019-04-25T01:04:47.259Z,99777.90
2019-04-25T01:07:16.645Z,99796.58
2019-04-25T01:09:45.984Z,99782.30
2019-04-25T01:12:18.001Z,99790.11
2019-04-25T01:14:47.345Z,99794.94
2019-04-25T01:17:16.735Z,99786.71
2019-04-25T01:19:46.795Z,99794.13
2019-04-25T01:22:16.163Z,99794.14
2019-04-25T01:24:45.689Z,99795.45
2019-04-25T01:27:15.234Z,99792.48
2019-04-25T01:29:46.216Z,99795.93
2019-04-25T01:32:17.281Z,99792.51
2019-04-25T01:34:48.553Z,99790.80
2019-04-25T01:37:19.566Z,99796.01
2019-04-25T01:39:51.105Z,99792.12
2019-04-25T01:42:25.072Z,99793.48
2019-04-25T01:44:56.843Z,99798.28
2019-04-25T01:47:26.820Z,99790.02
2019-04-25T01:49:56.711Z,99793.09
2019-04-25T01:52:26.106Z,99796.59
2019-04-25T01:54:56.251Z,99795.77
2019-04-25T01:57:26.405Z,99800.57
2019-04-25T01:59:56.292Z,99787.97
2019-04-25T02:02:27.326Z,99797.52
2019-04-25T02:04:58.001Z,99808.84
2019-04-25T02:07:27.775Z,99810.61
2019-04-25T02:09:57.370Z,99810.61
2019-04-25T02:12:28.427Z,99804.98
2019-04-25T02:14:57.929Z,99811.92
2019-04-25T02:17:27.267Z,99812.41
2019-04-25T02:19:57.078Z,99815.50
2019-04-25T02:22:27.155Z,99823.73
2019-04-25T02:24:57.131Z,99824.56
2019-04-25T02:27:26.472Z,99821.96
2019-04-25T02:29:56.371Z,99821.55
2019-04-25T02:32:26.546Z,99819.84
2019-04-25T02:35:00.485Z,99819.89
2019-04-25T02:37:27.997Z,99818.17
2019-04-25T02:40:00.012Z,99835.95
2019-04-25T02:42:28.495Z,99830.74
2019-04-25T02:45:02.156Z,99833.76
2019-04-25T02:47:35.315Z,99837.23
2019-04-25T02:50:19.770Z,99836.36
2019-04-25T02:52:50.791Z,99846.79
2019-04-25T02:55:30.896Z,99835.06
2019-04-25T02:57:54.130Z,99843.68
2019-04-25T03:00:27.579Z,99828.05
2019-04-25T03:02:59.038Z,99825.44
2019-04-25T03:05:28.539Z,99821.13
2019-04-25T03:07:59.645Z,99834.15
2019-04-25T03:10:29.032Z,99826.72
2019-04-25T03:12:59.998Z,99824.95
2019-04-25T03:15:29.658Z,99818.83
2019-04-25T03:18:00.178Z,99815.77
2019-04-25T03:20:49.363Z,99816.20
2019-04-25T03:23:20.359Z,99817.06
2019-04-25T03:25:49.743Z,99813.16
2019-04-25T03:28:19.101Z,99820.16
2019-04-25T03:30:48.459Z,99811.03
2019-04-25T03:33:19.736Z,99804.58
2019-04-25T03:35:48.839Z,99803.70
2019-04-25T03:38:18.197Z,99806.77
2019-04-25T03:40:47.579Z,99818.03
2019-04-25T03:43:16.942Z,99818.03
2019-04-25T03:45:46.299Z,99819.34
2019-04-25T03:48:15.636Z,99817.21
2019-04-25T03:50:45.073Z,99815.03
2019-04-25T03:53:14.427Z,99816.80
2019-04-25T03:55:44.339Z,99822.85
2019-04-25T03:58:14.607Z,99833.33
2019-04-25T04:00:44.792Z,99839.38
2019-04-25T04:03:15.193Z,99838.54
2019-04-25T04:05:44.562Z,99837.72
2019-04-25T04:08:15.562Z,99842.48
2019-04-25T04:10:45.133Z,99837.73
2019-04-25T04:13:15.739Z,99846.86
2019-04-25T04:15:45.247Z,99840.34
2019-04-25T04:18:17.319Z,99845.97
2019-04-25T04:20:59.963Z,99829.92
2019-04-25T04:23:46.014Z,99829.94
2019-04-25T04:26:15.704Z,99828.64
2019-04-25T04:28:45.023Z,99831.66
2019-04-25T04:31:15.427Z,99826.44
2019-04-25T04:33:44.796Z,99834.24
2019-04-25T04:36:15.043Z,99833.76
2019-04-25T04:38:45.244Z,99834.58
2019-04-25T04:41:15.461Z,99838.04
2019-04-25T04:43:45.593Z,99839.27
2019-04-25T04:46:17.141Z,99844.43
2019-04-25T04:48:45.975Z,99860.03
2019-04-25T04:51:15.756Z,99852.57
2019-04-25T04:53:45.388Z,99850.34
2019-04-25T04:56:15.596Z,99841.13
2019-04-25T04:58:45.793Z,99850.58
2019-04-25T05:01:18.632Z,99870.45
2019-04-25T05:03:49.670Z,99862.96
2019-04-25T05:06:24.016Z,99851.59
2019-04-25T05:08:58.681Z,99848.84
2019-04-25T05:11:28.058Z,99844.34
2019-04-25T05:13:57.407Z,99848.97
2019-04-25T05:16:26.772Z,99840.16
2019-04-25T05:18:56.133Z,99832.20
2019-04-25T05:21:25.458Z,99834.16
2019-04-25T05:23:54.789Z,99829.22
2019-04-25T05:26:25.079Z,99838.55
2019-04-25T05:28:54.932Z,99834.36
2019-04-25T05:31:25.950Z,99835.42
2019-04-25T05:33:55.345Z,99832.53
2019-04-25T05:36:26.341Z,99823.91
2019-04-25T05:38:55.723Z,99823.53
2019-04-25T05:41:26.738Z,99828.02
2019-04-25T05:43:56.077Z,99835.27
2019-04-25T05:46:26.318Z,99851.73
2019-04-25T05:48:55.693Z,99856.02
2019-04-25T05:51:25.914Z,99850.18
2019-04-25T05:53:55.292Z,99867.39
2019-04-25T05:56:26.965Z,99867.77
2019-04-25T05:58:55.751Z,99879.91
2019-04-25T06:01:28.950Z,99884.56
2019-04-25T06:03:56.154Z,99878.81
2019-04-25T06:06:26.110Z,99878.72
2019-04-25T06:08:57.109Z,99887.75
2019-04-25T06:11:36.921Z,99892.02
2019-04-25T06:14:10.962Z,99881.86
2019-04-25T06:16:40.851Z,99890.92
2019-04-25T06:19:16.313Z,99901.25
2019-04-25T06:21:43.504Z,99904.24
2019-04-25T06:24:25.891Z,99890.70
2019-04-25T06:27:13.902Z,99881.54
2019-04-25T06:29:57.331Z,99885.93
2019-04-25T06:32:15.883Z,99892.47
2019-04-25T06:34:45.508Z,99905.83
2019-04-25T06:37:15.837Z,99898.30
2019-04-25T06:39:45.205Z,99903.99
2019-04-25T06:42:14.606Z,99902.30
2019-04-25T06:44:45.653Z,99910.22
2019-04-25T06:47:20.242Z,99887.59
2019-04-25T06:49:50.426Z,99887.59
2019-04-25T06:52:19.805Z,99900.89
2019-04-25T06:54:49.146Z,99901.66
2019-04-25T06:57:18.537Z,99898.95
2019-04-25T06:59:47.930Z,99907.79
2019-04-25T07:02:17.270Z,99900.91
2019-04-25T07:04:46.620Z,99902.54
2019-04-25T07:07:16.009Z,99904.95
2019-04-25T07:09:45.377Z,99919.45
2019-04-25T07:12:14.743Z,99924.06
2019-04-25T07:14:44.138Z,99928.39
2019-04-25T07:17:14.309Z,99931.62
2019-04-25T07:19:44.158Z,99938.97
2019-04-25T07:22:15.238Z,99941.43
2019-04-25T07:24:44.755Z,99938.05
2019-04-25T07:27:18.464Z,99925.37
2019-04-25T07:30:05.337Z,99923.22
2019-04-25T07:32:39.101Z,99930.23
2019-04-25T07:35:08.544Z,99942.64
2019-04-25T07:37:41.566Z,99921.56
2019-04-25T07:40:09.954Z,99927.59
2019-04-25T07:42:39.348Z,99924.30
2019-04-25T07:45:10.672Z,99922.20
2019-04-25T07:47:40.191Z,99921.19
2019-04-25T07:50:10.127Z,99925.87
2019-04-25T07:52:39.556Z,99926.02
2019-04-25T07:55:09.224Z,99935.17
2019-04-25T07:57:38.687Z,99927.01
2019-04-25T08:00:14.140Z,99929.30
2019-04-25T08:02:43.731Z,99925.70
2019-04-25T08:05:15.737Z,99932.43
2019-04-25T08:11:31.939Z,99943.21
2019-04-25T08:24:30.768Z,99945.67
2019-04-25T08:27:00.223Z,99951.76
2019-04-25T08:33:15.971Z,99947.18
2019-04-25T08:36:03.390Z,99949.56
2019-04-25T08:38:16.463Z,99953.16
2019-04-25T08:40:45.843Z,99951.12
2019-04-25T08:43:15.173Z,99945.68
2019-04-25T08:45:44.573Z,99955.45
2019-04-25T08:48:13.937Z,99948.02
2019-04-25T08:50:53.896Z,99948.07
2019-04-25T08:53:24.909Z,99954.09
2019-04-25T08:56:01.617Z,99953.07
2019-04-25T08:58:39.107Z,99968.21
2019-04-25T09:01:14.099Z,99964.31
2019-04-25T09:03:45.086Z,99956.95
2019-04-25T09:06:14.494Z,99958.71
2019-04-25T09:08:46.432Z,99954.91
2019-04-25T09:11:15.953Z,99957.97
2019-04-25T09:13:45.325Z,99951.74
2019-04-25T09:16:15.530Z,99951.86
2019-04-25T09:18:46.509Z,99958.03
2019-04-25T09:21:15.807Z,99966.45
2019-04-25T09:23:45.215Z,99964.53
2019-04-25T09:26:15.616Z,99955.85
2019-04-25T09:28:46.356Z,99945.61
2019-04-25T09:31:15.989Z,99934.44
2019-04-25T09:33:46.649Z,99929.01
2019-04-25T09:44:42.109Z,99916.91
2019-04-25T09:47:13.630Z,99926.86
2019-04-25T09:49:44.905Z,99937.97
2019-04-25T09:52:15.947Z,99929.23
2019-04-25T09:54:55.675Z,99946.98
2019-04-25T09:57:36.356Z,99942.39
2019-04-25T10:00:09.528Z,99934.46
2019-04-25T10:02:38.923Z,99939.25
2019-04-25T10:05:08.409Z,99926.76
2019-04-25T10:07:38.492Z,99926.80
2019-04-25T10:10:08.617Z,99938.19
2019-04-25T10:12:38.784Z,99931.13
2019-04-25T10:15:29.036Z,99930.16
2019-04-25T10:17:58.394Z,99948.52
2019-04-25T10:20:27.854Z,99935.90
2019-04-25T10:22:57.328Z,99932.07
2019-04-25T10:25:26.766Z,99936.17
2019-04-25T10:27:56.167Z,99934.98
2019-04-25T10:30:26.067Z,99932.53
2019-04-25T10:32:55.536Z,99921.59
2019-04-25T10:35:24.876Z,99923.69
2019-04-25T10:37:55.016Z,99929.28
2019-04-25T10:40:27.189Z,99934.88
2019-04-25T10:42:57.728Z,99919.46
2019-04-25T10:45:27.044Z,99924.32
2019-04-25T10:47:56.650Z,99912.65
2019-04-25T10:50:27.032Z,99912.41
2019-04-25T10:52:56.386Z,99917.76
2019-04-25T10:55:25.773Z,99930.04
2019-04-25T10:57:56.333Z,99918.27
2019-04-25T11:04:28.452Z,99920.62
2019-04-25T11:06:57.836Z,99923.43
2019-04-25T11:09:27.309Z,99919.31
2019-04-25T11:11:56.694Z,99920.02
2019-04-25T11:14:27.720Z,99925.73
2019-04-25T11:16:57.070Z,99919.20
2019-04-25T11:19:26.444Z,99912.52
2019-04-25T11:21:55.791Z,99921.73
2019-04-25T11:24:25.169Z,99917.41
2019-04-25T11:26:55.349Z,99920.05
2019-04-25T11:29:24.848Z,99915.11
2019-04-25T11:31:54.205Z,99901.86
2019-04-25T11:34:24.349Z,99900.34
2019-04-25T11:36:54.544Z,99902.45
2019-04-25T11:39:34.389Z,99897.88
2019-04-25T11:42:04.793Z,99889.44
2019-04-25T11:44:35.012Z,99880.65
2019-04-25T11:47:06.931Z,99870.33
2019-04-25T11:49:35.613Z,99865.13
2019-04-25T11:52:05.420Z,99871.25
2019-04-25T11:54:34.890Z,99858.45
2019-04-25T11:57:05.494Z,99852.86
2019-04-25T11:59:34.895Z,99859.66
2019-04-25T12:02:05.958Z,99847.64
2019-04-25T12:04:35.356Z,99849.71
2019-04-25T12:07:07.133Z,99843.16
2019-04-25T12:09:35.775Z,99856.30
2019-04-25T12:12:06.209Z,99843.66
2019-04-25T12:14:35.578Z,99835.45
2019-04-25T12:17:05.121Z,99836.86
2019-04-25T12:19:37.844Z,99829.20
2019-04-25T12:22:05.598Z,99833.42
2019-04-25T12:24:34.982Z,99837.14
2019-04-25T12:27:04.579Z,99833.44
2019-04-25T12:29:33.918Z,99839.02
2019-04-25T12:32:04.059Z,99847.64
2019-04-25T12:34:33.845Z,99841.23
2019-04-25T12:37:03.922Z,99829.55
2019-04-25T12:39:34.194Z,99834.18
2019-04-25T12:42:04.415Z,99829.50
2019-04-25T12:44:35.393Z,99819.98
2019-04-25T12:47:06.379Z,99824.66
2019-04-25T12:49:35.739Z,99831.89
2019-04-25T12:52:50.621Z,99814.25
2019-04-25T12:55:19.999Z,99820.39
2019-04-25T12:58:48.460Z,99811.63
2019-04-25T13:01:17.817Z,99810.77
2019-04-25T13:11:33.324Z,99820.07
2019-04-25T13:14:03.687Z,99826.08
2019-04-25T13:16:34.228Z,99829.84
2019-04-25T13:19:13.444Z,99826.17
2019-04-25T13:21:34.661Z,99833.92
2019-04-25T13:24:04.092Z,99834.33
2019-04-25T13:26:35.102Z,99835.34
2019-04-25T13:29:06.788Z,99841.19
2019-04-25T13:31:40.619Z,99838.53
2019-04-25T13:34:14.652Z,99843.58
2019-04-25T13:36:44.393Z,99844.91
2019-04-25T13:39:18.185Z,99842.63
2019-04-25T13:41:47.569Z,99849.23
2019-04-25T13:44:16.956Z,99852.48
2019-04-25T13:46:46.341Z,99862.44
2019-04-25T13:49:15.708Z,99856.75
2019-04-25T13:55:43.494Z,99857.08
2019-04-25T13:58:14.499Z,99874.94
2019-04-25T14:00:44.546Z,99876.14
2019-04-25T14:03:13.921Z,99876.50
2019-04-25T14:05:43.898Z,99875.41
2019-04-25T14:08:14.945Z,99859.64
2019-04-25T14:10:47.399Z,99860.03
2019-04-25T14:13:16.459Z,99864.22
2019-04-25T14:15:47.570Z,99868.59
2019-04-25T14:21:39.690Z,99870.18
2019-04-25T14:24:19.929Z,99875.86
2019-04-25T14:38:11.680Z,99880.47
2019-04-25T14:48:14.057Z,99878.25
2019-04-25T14:50:43.415Z,99890.64
2019-04-25T14:53:12.863Z,99891.59
2019-04-25T14:56:02.015Z,99890.91
2019-04-25T14:58:32.998Z,99893.72
2019-04-25T15:01:02.430Z,99904.13
2019-04-25T15:03:31.867Z,99905.16
2019-04-25T15:06:01.227Z,99904.22
2019-04-25T15:08:32.703Z,99904.02
2019-04-25T15:11:02.168Z,99916.58
2019-04-25T15:13:31.878Z,99920.33
2019-04-25T15:16:01.470Z,99919.95
2019-04-25T15:18:31.039Z,99918.33
2019-04-25T15:21:00.307Z,99908.27
2019-04-25T15:23:29.948Z,99919.22
2019-04-25T15:26:00.335Z,99914.61
2019-04-25T15:28:29.805Z,99915.35
2019-04-25T15:30:59.090Z,99913.91
2019-04-25T15:33:28.452Z,99912.65
2019-04-25T15:36:17.598Z,99919.97
2019-04-25T15:38:54.322Z,99916.00
2019-04-25T15:41:43.382Z,99916.31
2019-04-25T15:44:30.921Z,99910.00
2019-04-25T15:47:02.909Z,99911.34
2019-04-25T15:49:32.295Z,99919.89
2019-04-25T15:52:01.614Z,99922.98
2019-04-25T15:54:31.728Z,99923.93
2019-04-25T15:57:01.093Z,99921.92
2019-04-25T15:59:30.777Z,99925.81
2019-04-25T16:02:07.932Z,99931.03
2019-04-25T16:04:32.277Z,99920.72
2019-04-25T16:07:01.761Z,99920.95
2019-04-25T16:09:31.929Z,99916.80
2019-04-25T16:12:01.355Z,99916.65
2019-04-25T16:14:31.768Z,99904.28
2019-04-25T16:17:01.145Z,99902.58
2019-04-25T16:19:31.539Z,99910.59
2019-04-25T16:22:00.995Z,99923.64
2019-04-25T16:24:30.441Z,99918.34
2019-04-25T16:26:59.803Z,99922.24
2019-04-25T16:29:31.130Z,99917.03
2019-04-25T16:32:01.311Z,99918.34
2019-04-25T16:34:30.835Z,99929.50
2019-04-25T16:37:00.149Z,99933.23
2019-04-25T16:39:31.203Z,99949.45
2019-04-25T16:42:00.584Z,99958.45
2019-04-25T16:44:29.954Z,99946.29
2019-04-25T16:46:59.258Z,99951.17
2019-04-25T16:49:29.825Z,99968.76
2019-04-25T16:51:59.300Z,99970.05
2019-04-25T16:54:29.287Z,99975.44
2019-04-25T16:57:00.284Z,99975.09
2019-04-25T16:59:29.661Z,99975.78
2019-04-25T17:01:59.257Z,99983.19
2019-04-25T17:04:29.781Z,99989.27
2019-04-25T17:06:59.264Z,99984.67
2019-04-25T17:09:30.376Z,99987.55
2019-04-25T17:11:59.951Z,99989.11
2019-04-25T17:14:31.531Z,99986.70
2019-04-25T17:17:14.510Z,99998.43
2019-04-25T17:19:48.491Z,100003.95
2019-04-25T17:22:18.196Z,99999.38
2019-04-25T17:24:47.587Z,100008.92
2019-04-25T17:27:17.450Z,100003.58
2019-04-25T17:29:46.839Z,100010.47
2019-04-25T17:32:24.736Z,100014.27
2019-04-25T17:34:55.744Z,100021.87
2019-04-25T17:37:26.726Z,100021.64
2019-04-25T17:40:12.561Z,100024.66
2019-04-25T17:42:41.952Z,100032.30
2019-04-25T17:45:12.924Z,100035.42
2019-04-25T17:47:53.775Z,100027.05
2019-04-25T17:50:13.584Z,100015.52
2019-04-25T17:52:43.074Z,100013.74
2019-04-25T17:55:12.703Z,100005.08
2019-04-25T17:57:42.138Z,100006.66
2019-04-25T18:00:19.242Z,100022.93
2019-04-25T18:02:58.324Z,100020.39
2019-04-25T18:05:19.950Z,100013.61
2019-04-25T18:07:49.296Z,100014.73
2019-04-25T18:10:18.716Z,100015.05
2019-04-25T18:12:48.104Z,100006.55
2019-04-25T18:15:19.190Z,100008.52
2019-04-25T18:17:48.516Z,100006.16
2019-04-25T18:20:22.466Z,100015.28
2019-04-25T18:22:55.963Z,100016.14
2019-04-25T18:25:29.901Z,100020.59
2019-04-25T18:28:03.627Z,100047.41
2019-04-25T18:30:33.027Z,100087.71
2019-04-25T18:33:13.032Z,100106.84
2019-04-25T18:35:44.075Z,100105.33
2019-04-25T18:38:29.894Z,100109.50
2019-04-25T18:41:09.599Z,100087.70
2019-04-25T18:43:43.321Z,100112.69
2019-04-25T18:46:14.303Z,100112.44
2019-04-25T18:48:44.959Z,100111.87
2019-04-25T18:51:14.270Z,100100.80
2019-04-25T18:53:53.995Z,100101.91
2019-04-25T18:56:25.005Z,100107.38
2019-04-25T18:58:56.056Z,100104.58
2019-04-25T19:01:35.782Z,100102.21
2019-04-25T19:04:10.453Z,100119.95
2019-04-25T19:06:51.198Z,100127.50
2019-04-25T19:09:11.957Z,100144.66
2019-04-25T19:11:41.501Z,100164.54
2019-04-25T19:14:11.026Z,100157.75
2019-04-25T19:16:41.140Z,100138.66
2019-04-25T19:19:10.448Z,100138.66
2019-04-25T19:21:41.617Z,100140.88
2019-04-25T19:24:11.049Z,100140.48
2019-04-25T19:26:42.235Z,100151.84
2019-04-25T19:29:12.441Z,100152.52
2019-04-25T19:31:42.806Z,100145.13
2019-04-25T19:34:12.191Z,100144.15
2019-04-25T19:36:42.694Z,100135.58
2019-04-25T19:39:13.826Z,100141.09
2019-04-25T19:41:45.058Z,100157.29
2019-04-25T19:44:16.054Z,100157.29
2019-04-25T19:46:47.163Z,100167.44
2019-04-25T19:49:16.516Z,100209.48
2019-04-25T19:51:45.990Z,100217.94
2019-04-25T19:54:15.298Z,100226.33
2019-04-25T19:56:45.362Z,100231.17
2019-04-25T19:59:14.735Z,100242.96
2019-04-25T20:01:45.951Z,100242.96
2019-04-25T20:04:16.983Z,100235.53
2019-04-25T20:07:04.139Z,100235.53
2019-04-25T20:09:40.693Z,100243.89
2019-04-25T20:12:10.098Z,100243.89
2019-04-25T20:14:39.473Z,100242.70
2019-04-25T20:17:08.841Z,100227.11
2019-04-25T20:19:38.238Z,100252.91
2019-04-25T20:22:08.594Z,100252.91
2019-04-25T20:24:37.955Z,100246.83
2019-04-25T20:27:07.390Z,100225.08
2019-04-25T20:29:36.777Z,100225.08
2019-04-25T20:32:07.240Z,100231.63
2019-04-25T20:34:36.642Z,100251.00
2019-04-25T20:37:06.008Z,100258.95
2019-04-25T20:39:35.394Z,100258.95
2019-04-25T20:42:04.767Z,100243.34
2019-04-25T20:44:36.463Z,100231.27
2019-04-25T20:47:05.233Z,100247.33
2019-04-25T20:49:34.642Z,100239.12
2019-04-25T20:52:04.190Z,100232.02
2019-04-25T20:54:33.552Z,100232.11
2019-04-25T20:57:02.903Z,100240.87
2019-04-25T20:59:32.341Z,100239.16
2019-04-25T21:02:01.685Z,100236.66
2019-04-25T21:04:41.413Z,100242.16
2019-04-25T21:07:11.155Z,100243.87
2019-04-25T21:09:41.433Z,100232.17
2019-04-25T21:12:10.889Z,100229.67
2019-04-25T21:14:49.236Z,100216.20
2019-04-25T21:17:20.321Z,100228.56
2019-04-25T21:20:03.113Z,100257.00
2019-04-25T21:22:32.463Z,100253.56
2019-04-25T21:25:02.480Z,100235.23
2019-04-25T21:27:32.920Z,100220.86
2019-04-25T21:30:02.400Z,100195.89
2019-04-25T21:32:34.572Z,100199.77
2019-04-25T21:35:05.749Z,100198.89
2019-04-25T21:37:35.716Z,100212.19
2019-04-25T21:40:13.825Z,100212.19
2019-04-25T21:42:51.574Z,100234.82
2019-04-25T21:45:21.981Z,100216.61
2019-04-25T21:47:52.344Z,100198.31
2019-04-25T21:50:21.999Z,100198.31
2019-04-25T21:52:52.723Z,100195.78
2019-04-25T21:55:22.415Z,100203.14
2019-04-25T21:57:52.078Z,100248.05
2019-04-25T22:00:32.417Z,100265.98
2019-04-25T22:03:04.450Z,100262.08
2019-04-25T22:05:34.179Z,100273.53
2019-04-25T22:08:04.786Z,100284.09
2019-04-25T22:10:34.189Z,100285.39
2019-04-25T22:13:11.999Z,100281.56
2019-04-25T22:15:34.848Z,100285.19
2019-04-25T22:18:04.493Z,100269.67
2019-04-25T22:20:33.946Z,100252.28
2019-04-25T22:23:03.317Z,100240.59
2019-04-25T22:25:32.876Z,100231.89
2019-04-25T22:28:03.067Z,100236.34
2019-04-25T22:30:32.781Z,100221.07
2019-04-25T22:33:09.677Z,100224.17
2019-04-25T22:35:49.369Z,100224.17
2019-04-25T22:38:18.946Z,100239.38
2019-04-25T22:40:48.363Z,100238.05
2019-04-25T22:43:17.947Z,100234.05
2019-04-25T22:45:47.546Z,100215.21
2019-04-25T22:48:19.493Z,100201.55
2019-04-25T22:50:49.124Z,100201.55
2019-04-25T22:53:23.420Z,100217.72
2019-04-25T22:55:49.563Z,100195.26
2019-04-25T22:58:18.946Z,100195.26
2019-04-25T23:00:48.388Z,100174.38
2019-04-25T23:03:35.954Z,100174.84
2019-04-25T23:06:05.644Z,100199.70
2019-04-25T23:08:35.053Z,100212.78
2019-04-25T23:11:04.461Z,100221.53
2019-04-25T23:13:33.839Z,100234.97
2019-04-25T23:16:04.093Z,100254.66
2019-04-25T23:18:34.302Z,100240.26
2019-04-25T23:21:04.013Z,100241.59
2019-04-25T23:23:34.529Z,100252.55
2019-04-25T23:26:06.096Z,100259.06
2019-04-25T23:28:37.432Z,100263.42
2019-04-25T23:31:11.077Z,100261.70
2019-04-25T23:33:40.447Z,100263.50
2019-04-25T23:36:11.108Z,100261.79
2019-04-25T23:38:40.527Z,100262.22
2019-04-25T23:41:10.079Z,100259.61
2019-04-25T23:43:39.461Z,100247.02
2019-04-25T23:46:09.060Z,100261.84
2019-04-25T23:48:39.492Z,100266.63
2019-04-25T23:51:09.028Z,100278.90
2019-04-25T23:53:39.531Z,100271.95
2019-04-25T23:56:09.148Z,100272.79
2019-04-25T23:58:38.853Z,100268.45
